Anthony, Indiana
Current Conditions -  °F | °C
As of 11:53 AM on Tuesday 27 Jan 2015 (Local Time) from KMIE Reporting Station
Clear Clear  
Wind Chill: 15°   Ceiling: Unl
Heat Index: 23°   Visibility: 7mi
Dew Point: 13°   Wind: 7mph
Humidity: 65%   Direction: 60°ENE
Pressure: 30.11"   Gusts: NA
Location:  40.2763°N, 85.3769°W
Report Text: KMIE 271653Z 06006KT 7SM CLR M05/M11 A3011 RMK AO2 SLP205 T10501106
Loading
Personal Weather Stations






























Interactive Weather Map New forecast layout! Learn more

10-Day Weather Forecast

Advertisements
Track Severe Weather on mobile